createdAt,value
2019-03-21T00:00:30.255Z,58.00
2019-03-21T00:04:33.252Z,57.80
2019-03-21T00:08:36.223Z,57.20
2019-03-21T00:12:39.218Z,56.80
2019-03-21T00:16:43.440Z,56.40
2019-03-21T00:20:46.448Z,56.30
2019-03-21T00:24:49.427Z,56.00
2019-03-21T00:28:52.489Z,56.80
2019-03-21T00:32:55.742Z,56.60
2019-03-21T00:36:58.830Z,57.50
2019-03-21T00:41:01.818Z,57.20
2019-03-21T00:45:10.771Z,57.40
2019-03-21T00:49:13.776Z,57.90
2019-03-21T00:53:16.788Z,57.70
2019-03-21T00:57:19.867Z,57.80
2019-03-21T01:01:22.883Z,57.60
2019-03-21T01:05:26.311Z,57.80
2019-03-21T01:09:29.310Z,58.10
2019-03-21T01:13:35.069Z,58.30
2019-03-21T01:17:39.139Z,58.90
2019-03-21T01:21:42.138Z,59.00
2019-03-21T01:25:51.755Z,58.80
2019-03-21T01:29:54.749Z,59.40
2019-03-21T01:33:57.752Z,60.00
2019-03-21T01:38:00.778Z,61.00
2019-03-21T01:42:03.794Z,61.20
2019-03-21T01:46:13.703Z,60.50
2019-03-21T01:50:18.910Z,60.40
2019-03-21T01:54:21.900Z,61.00
2019-03-21T01:58:24.883Z,60.40
2019-03-21T02:02:27.868Z,60.40
2019-03-21T02:06:30.858Z,60.30
2019-03-21T02:10:34.637Z,59.90
2019-03-21T02:14:37.631Z,60.30
2019-03-21T02:18:41.645Z,60.80
2019-03-21T02:22:44.638Z,61.30
2019-03-21T02:26:47.641Z,60.90
2019-03-21T02:30:51.706Z,61.80
2019-03-21T02:34:54.744Z,62.10
2019-03-21T02:38:57.796Z,61.50
2019-03-21T02:43:00.794Z,60.90
2019-03-21T02:47:03.806Z,60.50
2019-03-21T02:51:06.894Z,60.20
2019-03-21T02:55:10.382Z,60.90
2019-03-21T02:59:13.628Z,60.90
2019-03-21T03:03:16.693Z,61.20
2019-03-21T03:07:19.683Z,61.50
2019-03-21T03:11:23.310Z,61.30
2019-03-21T03:15:28.984Z,62.00
2019-03-21T03:19:32.550Z,62.80
2019-03-21T03:23:35.548Z,63.30
2019-03-21T03:27:38.639Z,63.50
2019-03-21T03:31:41.675Z,63.40
2019-03-21T03:35:44.862Z,63.20
2019-03-21T03:39:47.854Z,62.80
2019-03-21T03:43:50.952Z,62.40
2019-03-21T03:47:53.957Z,62.00
2019-03-21T03:51:56.951Z,61.60
2019-03-21T03:56:00.065Z,61.40
2019-03-21T04:00:06.856Z,61.50
2019-03-21T04:04:09.946Z,61.30
2019-03-21T04:08:12.924Z,61.80
2019-03-21T04:12:16.232Z,62.60
2019-03-21T04:16:19.236Z,63.00
2019-03-21T04:20:48.944Z,63.20
2019-03-21T04:24:51.907Z,62.70
2019-03-21T04:28:54.904Z,64.10
2019-03-21T04:32:57.908Z,64.10
2019-03-21T04:37:00.923Z,65.00
2019-03-21T04:41:03.916Z,65.40
2019-03-21T04:45:10.246Z,65.40
2019-03-21T04:49:13.225Z,66.40
2019-03-21T04:53:16.283Z,66.60
2019-03-21T04:57:19.292Z,65.60
2019-03-21T05:01:22.280Z,65.50
2019-03-21T05:05:25.282Z,65.40
2019-03-21T05:09:28.290Z,73.90
2019-03-21T05:13:31.300Z,68.20
2019-03-21T05:17:34.377Z,68.30
2019-03-21T05:21:38.097Z,69.10
2019-03-21T05:25:41.188Z,68.00
2019-03-21T05:29:44.294Z,69.30
2019-03-21T05:33:47.383Z,69.70
2019-03-21T05:37:50.375Z,70.20
2019-03-21T05:41:53.525Z,69.60
2019-03-21T05:45:56.840Z,68.80
2019-03-21T05:49:59.967Z,68.70
2019-03-21T05:54:03.066Z,67.30
2019-03-21T05:58:06.063Z,66.80
2019-03-21T06:02:09.094Z,67.20
2019-03-21T06:06:31.258Z,67.20
2019-03-21T06:10:34.265Z,67.50
2019-03-21T06:14:49.931Z,67.70
2019-03-21T06:19:11.378Z,66.20
2019-03-21T06:23:48.596Z,65.50
2019-03-21T06:27:51.619Z,63.60
2019-03-21T06:31:54.735Z,61.70
2019-03-21T06:35:57.930Z,61.70
2019-03-21T06:40:00.937Z,60.30
2019-03-21T06:44:04.151Z,59.90
2019-03-21T06:48:07.158Z,59.60
2019-03-21T06:52:10.153Z,59.90
2019-03-21T06:56:13.149Z,59.90
2019-03-21T07:00:16.143Z,61.10
2019-03-21T07:04:19.155Z,62.00
2019-03-21T07:08:22.142Z,61.70
2019-03-21T07:12:25.160Z,59.40
2019-03-21T07:16:28.152Z,59.40
2019-03-21T07:20:31.218Z,57.30
2019-03-21T07:24:35.262Z,56.50
2019-03-21T07:28:38.712Z,56.00
2019-03-21T07:32:41.899Z,53.70
2019-03-21T07:36:44.901Z,51.20
2019-03-21T07:40:47.903Z,49.10
2019-03-21T07:44:50.907Z,49.20
2019-03-21T07:48:53.916Z,47.20
2019-03-21T07:52:56.905Z,45.50
2019-03-21T07:57:00.002Z,43.80
2019-03-21T08:01:03.022Z,42.10
2019-03-21T08:05:07.319Z,41.20
2019-03-21T08:09:10.317Z,37.70
2019-03-21T08:13:13.314Z,37.90
2019-03-21T08:17:16.309Z,38.40
2019-03-21T08:21:19.331Z,36.40
2019-03-21T08:25:22.952Z,34.60
2019-03-21T08:29:25.959Z,32.30
2019-03-21T08:33:28.952Z,30.80
2019-03-21T08:37:32.005Z,29.80
2019-03-21T08:41:35.005Z,29.70
2019-03-21T08:45:38.108Z,29.30
2019-03-21T08:49:41.099Z,29.80
2019-03-21T08:53:44.109Z,29.60
2019-03-21T08:57:47.131Z,28.10
2019-03-21T09:01:50.123Z,27.30
2019-03-21T09:05:53.119Z,26.80
2019-03-21T09:09:56.123Z,26.90
2019-03-21T09:13:59.127Z,25.80
2019-03-21T09:18:02.163Z,25.70
2019-03-21T09:22:05.155Z,25.20
2019-03-21T09:26:08.361Z,25.70
2019-03-21T09:30:13.164Z,25.80
2019-03-21T09:34:16.174Z,24.90
2019-03-21T09:38:19.175Z,24.50
2019-03-21T09:42:22.193Z,25.30
2019-03-21T09:46:25.209Z,25.40
2019-03-21T09:50:28.808Z,24.10
2019-03-21T09:54:31.854Z,26.10
2019-03-21T09:58:34.845Z,26.50
2019-03-21T10:02:37.852Z,23.40
2019-03-21T10:06:40.963Z,25.00
2019-03-21T10:10:43.954Z,24.30
2019-03-21T10:14:46.949Z,23.60
2019-03-21T10:18:49.963Z,23.60
2019-03-21T10:23:02.971Z,29.60
2019-03-21T10:27:07.258Z,22.00
2019-03-21T10:31:10.288Z,23.20
2019-03-21T10:35:15.462Z,24.90
2019-03-21T10:39:18.771Z,25.20
2019-03-21T10:43:21.802Z,25.00
2019-03-21T10:47:24.803Z,25.40
2019-03-21T10:51:27.854Z,25.40
2019-03-21T10:55:30.927Z,25.00
2019-03-21T10:59:33.927Z,23.30
2019-03-21T11:03:36.934Z,25.50
2019-03-21T11:07:39.933Z,25.50
2019-03-21T11:11:43.028Z,24.70
2019-03-21T11:15:46.032Z,25.90
2019-03-21T11:19:49.272Z,24.00
2019-03-21T11:23:52.377Z,23.00
2019-03-21T11:27:56.464Z,24.90
2019-03-21T11:31:59.751Z,26.00
2019-03-21T11:36:08.929Z,26.00
2019-03-21T11:40:12.118Z,24.70
2019-03-21T11:44:29.916Z,24.70
2019-03-21T11:48:39.666Z,25.10
2019-03-21T11:52:43.083Z,25.40
2019-03-21T11:56:52.262Z,25.40
2019-03-21T12:00:55.626Z,26.90
2019-03-21T12:04:58.677Z,25.20
2019-03-21T12:09:02.451Z,25.60
2019-03-21T12:13:12.424Z,26.30
2019-03-21T12:17:15.635Z,26.60
2019-03-21T12:21:18.689Z,26.90
2019-03-21T12:25:21.733Z,27.70
2019-03-21T12:29:25.560Z,27.50
2019-03-21T12:33:28.565Z,27.10
2019-03-21T12:37:31.579Z,26.80
2019-03-21T12:41:34.569Z,26.00
2019-03-21T12:45:37.595Z,24.90
2019-03-21T12:49:41.606Z,25.40
2019-03-21T12:53:44.610Z,26.70
2019-03-21T12:57:47.610Z,25.60
2019-03-21T13:01:50.614Z,25.10
2019-03-21T13:05:53.691Z,23.80
2019-03-21T13:09:56.734Z,25.60
2019-03-21T13:13:59.828Z,25.90
2019-03-21T13:18:03.203Z,25.90
2019-03-21T13:22:06.271Z,25.80
2019-03-21T13:26:09.271Z,26.80
2019-03-21T13:30:14.050Z,26.00
2019-03-21T13:34:17.076Z,28.10
2019-03-21T13:38:20.123Z,26.50
2019-03-21T13:42:23.149Z,25.40
2019-03-21T13:46:26.208Z,26.20
2019-03-21T13:50:29.212Z,26.70
2019-03-21T13:54:32.233Z,26.50
2019-03-21T13:58:35.365Z,26.80
2019-03-21T14:02:38.407Z,26.20
2019-03-21T14:06:41.395Z,26.80
2019-03-21T14:10:44.388Z,25.50
2019-03-21T14:14:47.385Z,25.80
2019-03-21T14:18:50.488Z,26.70
2019-03-21T14:22:53.489Z,25.90
2019-03-21T14:26:56.604Z,26.70
2019-03-21T14:31:01.324Z,25.90
2019-03-21T14:35:05.839Z,25.80
2019-03-21T14:39:08.859Z,26.60
2019-03-21T14:43:11.854Z,27.60
2019-03-21T14:47:36.061Z,26.60
2019-03-21T14:51:34.926Z,26.00
2019-03-21T14:55:47.121Z,25.90
2019-03-21T14:59:42.918Z,26.20
2019-03-21T15:03:45.923Z,26.50
2019-03-21T15:07:48.948Z,26.80
2019-03-21T15:11:52.014Z,26.40
2019-03-21T15:15:55.158Z,27.20
2019-03-21T15:19:58.158Z,27.90
2019-03-21T15:24:02.267Z,27.50
2019-03-21T15:28:05.262Z,27.40
2019-03-21T15:32:08.620Z,28.10
2019-03-21T15:36:11.619Z,29.00
2019-03-21T15:40:15.821Z,28.70
2019-03-21T15:44:18.833Z,28.30
2019-03-21T15:48:21.842Z,29.10
2019-03-21T15:52:24.836Z,29.00
2019-03-21T15:56:27.843Z,29.40
2019-03-21T16:00:39.447Z,29.80
2019-03-21T16:04:42.713Z,29.30
2019-03-21T16:08:45.738Z,29.10
2019-03-21T16:12:48.750Z,30.00
2019-03-21T16:16:51.733Z,30.80
2019-03-21T16:20:54.747Z,30.90
2019-03-21T16:24:57.746Z,30.40
2019-03-21T16:29:00.770Z,30.80
2019-03-21T16:33:04.483Z,31.10
2019-03-21T16:37:07.487Z,31.00
2019-03-21T16:41:10.551Z,31.30
2019-03-21T16:45:14.863Z,32.60
2019-03-21T16:49:26.707Z,32.70
2019-03-21T16:53:29.788Z,33.00
2019-03-21T16:57:33.805Z,32.80
2019-03-21T17:01:37.925Z,32.60
2019-03-21T17:05:42.057Z,32.90
2019-03-21T17:09:45.052Z,33.00
2019-03-21T17:13:48.157Z,33.70
2019-03-21T17:17:51.164Z,33.20
2019-03-21T17:21:54.199Z,33.20
2019-03-21T17:25:57.211Z,33.40
2019-03-21T17:30:05.395Z,33.60
2019-03-21T17:34:10.037Z,36.10
2019-03-21T17:42:23.358Z,34.20
2019-03-21T17:46:26.438Z,34.70
2019-03-21T17:50:29.436Z,34.70
2019-03-21T17:54:41.699Z,35.10
2019-03-21T17:58:43.362Z,35.40
2019-03-21T18:02:46.359Z,35.70
2019-03-21T18:06:49.359Z,36.00
2019-03-21T18:10:52.402Z,36.20
2019-03-21T18:14:55.415Z,36.50
2019-03-21T18:18:58.420Z,36.70
2019-03-21T18:23:01.459Z,37.40
2019-03-21T18:27:04.567Z,37.30
2019-03-21T18:31:07.677Z,37.20
2019-03-21T18:35:12.452Z,38.00
2019-03-21T18:39:15.447Z,37.70
2019-03-21T18:43:18.479Z,38.40
2019-03-21T18:47:21.479Z,42.00
2019-03-21T18:51:24.472Z,43.00
2019-03-21T18:55:27.567Z,44.30
2019-03-21T18:59:30.691Z,44.00
2019-03-21T19:03:33.755Z,44.40
2019-03-21T19:07:36.759Z,44.60
2019-03-21T19:11:39.906Z,44.90
2019-03-21T19:15:42.902Z,45.10
2019-03-21T19:19:46.035Z,44.80
2019-03-21T19:23:49.192Z,44.60
2019-03-21T19:27:52.249Z,45.90
2019-03-21T19:31:55.263Z,46.50
2019-03-21T19:35:59.709Z,45.70
2019-03-21T19:40:08.378Z,46.00
2019-03-21T19:44:11.492Z,46.60
2019-03-21T19:48:14.530Z,46.70
2019-03-21T19:52:17.636Z,48.00
2019-03-21T19:56:20.840Z,48.70
2019-03-21T20:00:23.969Z,48.00
2019-03-21T20:04:27.008Z,48.80
2019-03-21T20:08:30.097Z,49.00
2019-03-21T20:12:33.948Z,49.30
2019-03-21T20:16:37.035Z,50.10
2019-03-21T20:20:40.238Z,50.10
2019-03-21T20:24:43.375Z,50.70
2019-03-21T20:28:46.465Z,50.70
2019-03-21T20:32:49.699Z,51.10
2019-03-21T20:36:52.971Z,50.90
2019-03-21T20:40:56.118Z,51.30
2019-03-21T20:44:59.207Z,51.80
2019-03-21T20:49:02.366Z,51.70
2019-03-21T20:53:05.500Z,51.70
2019-03-21T20:57:08.577Z,51.50
2019-03-21T21:01:11.582Z,51.50
2019-03-21T21:05:14.601Z,51.90
2019-03-21T21:09:17.701Z,51.90
2019-03-21T21:13:20.789Z,51.70
2019-03-21T21:17:23.878Z,51.80
2019-03-21T21:21:26.978Z,51.80
2019-03-21T21:25:32.051Z,52.20
2019-03-21T21:29:35.054Z,51.90
2019-03-21T21:33:38.050Z,52.20
2019-03-21T21:37:41.988Z,52.80
2019-03-21T21:41:45.002Z,52.70
2019-03-21T21:45:48.034Z,53.00
2019-03-21T21:49:51.027Z,53.70
2019-03-21T21:53:54.028Z,53.90
2019-03-21T21:57:57.072Z,54.00
2019-03-21T22:02:00.072Z,54.60
2019-03-21T22:06:03.222Z,54.90
2019-03-21T22:10:07.307Z,54.50
2019-03-21T22:14:10.309Z,54.30
2019-03-21T22:18:13.321Z,54.90
2019-03-21T22:22:19.146Z,55.10
2019-03-21T22:26:29.461Z,55.10
2019-03-21T22:30:26.386Z,55.40
2019-03-21T22:34:29.629Z,55.60
2019-03-21T22:38:33.106Z,55.70
2019-03-21T22:42:36.219Z,55.90
2019-03-21T22:46:39.235Z,56.20
2019-03-21T22:50:42.235Z,56.20
2019-03-21T22:54:45.327Z,56.50
2019-03-21T22:58:48.749Z,56.00
2019-03-21T23:02:51.757Z,57.20
2019-03-21T23:06:54.807Z,56.00
2019-03-21T23:10:57.911Z,57.10
2019-03-21T23:15:00.916Z,57.50
2019-03-21T23:19:03.918Z,57.20
2019-03-21T23:23:06.918Z,57.60
2019-03-21T23:27:09.986Z,57.40
2019-03-21T23:31:12.983Z,58.20
2019-03-21T23:35:16.034Z,57.70
2019-03-21T23:39:19.520Z,58.00
2019-03-21T23:43:22.550Z,58.00
2019-03-21T23:47:25.559Z,58.40
2019-03-21T23:51:28.555Z,58.40
2019-03-21T23:55:31.556Z,58.20
2019-03-21T23:59:34.559Z,58.20
